sensor_id;sensor_type;location;lat;lon;timestamp;P1;durP1;ratioP1;P2;durP2;ratioP2
65737;SDS011;52478;51.844;6.582;2024-03-22T00:01:41;16.65;;;8.93;;
65737;SDS011;52478;51.844;6.582;2024-03-22T00:04:09;14.85;;;7.60;;
65737;SDS011;52478;51.844;6.582;2024-03-22T00:06:34;16.58;;;8.38;;
65737;SDS011;52478;51.844;6.582;2024-03-22T00:09:01;16.90;;;8.23;;
65737;SDS011;52478;51.844;6.582;2024-03-22T00:11:26;17.90;;;9.10;;
65737;SDS011;52478;51.844;6.582;2024-03-22T00:13:53;18.25;;;8.52;;
65737;SDS011;52478;51.844;6.582;2024-03-22T00:16:18;17.23;;;8.30;;
65737;SDS011;52478;51.844;6.582;2024-03-22T00:18:45;17.13;;;8.13;;
65737;SDS011;52478;51.844;6.582;2024-03-22T00:21:12;16.13;;;8.05;;
65737;SDS011;52478;51.844;6.582;2024-03-22T00:23:38;17.20;;;8.65;;
65737;SDS011;52478;51.844;6.582;2024-03-22T00:26:04;17.40;;;8.00;;
65737;SDS011;52478;51.844;6.582;2024-03-22T00:28:30;16.92;;;7.68;;
65737;SDS011;52478;51.844;6.582;2024-03-22T00:30:56;14.93;;;7.75;;
65737;SDS011;52478;51.844;6.582;2024-03-22T00:33:22;15.15;;;8.15;;
65737;SDS011;52478;51.844;6.582;2024-03-22T00:35:48;17.40;;;8.60;;
65737;SDS011;52478;51.844;6.582;2024-03-22T00:38:15;16.05;;;8.07;;
65737;SDS011;52478;51.844;6.582;2024-03-22T00:40:41;17.85;;;8.57;;
65737;SDS011;52478;51.844;6.582;2024-03-22T00:45:34;17.00;;;8.27;;
65737;SDS011;52478;51.844;6.582;2024-03-22T00:48:00;16.85;;;8.38;;
65737;SDS011;52478;51.844;6.582;2024-03-22T00:50:26;15.95;;;7.95;;
65737;SDS011;52478;51.844;6.582;2024-03-22T00:52:52;15.57;;;8.52;;
65737;SDS011;52478;51.844;6.582;2024-03-22T00:55:22;19.10;;;8.75;;
65737;SDS011;52478;51.844;6.582;2024-03-22T00:57:48;16.42;;;8.38;;
65737;SDS011;52478;51.844;6.582;2024-03-22T01:00:14;18.60;;;8.82;;
65737;SDS011;52478;51.844;6.582;2024-03-22T01:02:41;18.40;;;9.20;;
65737;SDS011;52478;51.844;6.582;2024-03-22T01:05:07;17.60;;;8.00;;
65737;SDS011;52478;51.844;6.582;2024-03-22T01:07:35;15.65;;;7.93;;
65737;SDS011;52478;51.844;6.582;2024-03-22T01:10:01;17.65;;;8.57;;
65737;SDS011;52478;51.844;6.582;2024-03-22T01:12:29;16.75;;;8.80;;
65737;SDS011;52478;51.844;6.582;2024-03-22T01:17:21;16.15;;;7.93;;
65737;SDS011;52478;51.844;6.582;2024-03-22T01:19:46;16.27;;;8.45;;
65737;SDS011;52478;51.844;6.582;2024-03-22T01:22:13;17.98;;;8.88;;
65737;SDS011;52478;51.844;6.582;2024-03-22T01:24:38;18.15;;;8.68;;
65737;SDS011;52478;51.844;6.582;2024-03-22T01:27:05;19.30;;;9.15;;
65737;SDS011;52478;51.844;6.582;2024-03-22T01:29:32;18.00;;;7.88;;
65737;SDS011;52478;51.844;6.582;2024-03-22T01:31:59;16.38;;;8.60;;
65737;SDS011;52478;51.844;6.582;2024-03-22T01:34:24;18.35;;;9.15;;
65737;SDS011;52478;51.844;6.582;2024-03-22T01:36:51;17.60;;;8.70;;
65737;SDS011;52478;51.844;6.582;2024-03-22T01:39:16;18.38;;;8.63;;
65737;SDS011;52478;51.844;6.582;2024-03-22T01:41:43;16.95;;;8.45;;
65737;SDS011;52478;51.844;6.582;2024-03-22T01:44:09;17.90;;;8.38;;
65737;SDS011;52478;51.844;6.582;2024-03-22T01:46:38;17.00;;;7.95;;
65737;SDS011;52478;51.844;6.582;2024-03-22T01:49:04;17.45;;;8.45;;
65737;SDS011;52478;51.844;6.582;2024-03-22T01:51:31;18.15;;;8.70;;
65737;SDS011;52478;51.844;6.582;2024-03-22T01:53:56;22.23;;;8.70;;
65737;SDS011;52478;51.844;6.582;2024-03-22T01:56:26;16.23;;;8.25;;
65737;SDS011;52478;51.844;6.582;2024-03-22T01:58:51;18.50;;;8.57;;
65737;SDS011;52478;51.844;6.582;2024-03-22T02:01:18;19.80;;;8.93;;
65737;SDS011;52478;51.844;6.582;2024-03-22T02:03:45;17.85;;;8.63;;
65737;SDS011;52478;51.844;6.582;2024-03-22T02:06:12;16.20;;;8.10;;
65737;SDS011;52478;51.844;6.582;2024-03-22T02:08:37;17.98;;;8.50;;
65737;SDS011;52478;51.844;6.582;2024-03-22T02:11:05;17.23;;;8.55;;
65737;SDS011;52478;51.844;6.582;2024-03-22T02:13:31;18.55;;;8.27;;
65737;SDS011;52478;51.844;6.582;2024-03-22T02:15:57;19.75;;;8.23;;
65737;SDS011;52478;51.844;6.582;2024-03-22T02:18:23;18.08;;;9.15;;
65737;SDS011;52478;51.844;6.582;2024-03-22T02:20:51;20.25;;;8.57;;
65737;SDS011;52478;51.844;6.582;2024-03-22T02:23:16;19.30;;;8.20;;
65737;SDS011;52478;51.844;6.582;2024-03-22T02:25:44;20.38;;;8.52;;
65737;SDS011;52478;51.844;6.582;2024-03-22T02:28:10;18.50;;;8.52;;
65737;SDS011;52478;51.844;6.582;2024-03-22T02:30:36;18.13;;;8.55;;
65737;SDS011;52478;51.844;6.582;2024-03-22T02:33:02;17.75;;;8.82;;
65737;SDS011;52478;51.844;6.582;2024-03-22T02:35:28;20.15;;;8.43;;
65737;SDS011;52478;51.844;6.582;2024-03-22T02:37:54;17.83;;;8.02;;
65737;SDS011;52478;51.844;6.582;2024-03-22T02:40:23;19.88;;;8.60;;
65737;SDS011;52478;51.844;6.582;2024-03-22T02:42:50;16.70;;;8.40;;
65737;SDS011;52478;51.844;6.582;2024-03-22T02:45:16;14.55;;;7.18;;
65737;SDS011;52478;51.844;6.582;2024-03-22T02:47:42;17.20;;;7.65;;
65737;SDS011;52478;51.844;6.582;2024-03-22T02:50:08;18.27;;;8.55;;
65737;SDS011;52478;51.844;6.582;2024-03-22T02:52:34;18.10;;;7.95;;
65737;SDS011;52478;51.844;6.582;2024-03-22T02:55:00;17.60;;;8.43;;
65737;SDS011;52478;51.844;6.582;2024-03-22T02:57:26;18.08;;;8.40;;
65737;SDS011;52478;51.844;6.582;2024-03-22T02:59:54;15.93;;;7.85;;
65737;SDS011;52478;51.844;6.582;2024-03-22T03:02:19;18.45;;;8.15;;
65737;SDS011;52478;51.844;6.582;2024-03-22T03:04:46;17.75;;;8.48;;
65737;SDS011;52478;51.844;6.582;2024-03-22T03:07:11;17.27;;;7.70;;
65737;SDS011;52478;51.844;6.582;2024-03-22T03:09:38;16.67;;;7.47;;
65737;SDS011;52478;51.844;6.582;2024-03-22T03:12:03;16.77;;;8.00;;
65737;SDS011;52478;51.844;6.582;2024-03-22T03:14:30;16.77;;;7.93;;
65737;SDS011;52478;51.844;6.582;2024-03-22T03:16:57;17.20;;;8.02;;
65737;SDS011;52478;51.844;6.582;2024-03-22T03:19:23;16.98;;;7.82;;
65737;SDS011;52478;51.844;6.582;2024-03-22T03:21:49;16.60;;;7.97;;
65737;SDS011;52478;51.844;6.582;2024-03-22T03:24:15;19.40;;;8.55;;
65737;SDS011;52478;51.844;6.582;2024-03-22T03:26:40;18.30;;;9.00;;
65737;SDS011;52478;51.844;6.582;2024-03-22T03:29:07;17.23;;;8.10;;
65737;SDS011;52478;51.844;6.582;2024-03-22T03:31:32;18.08;;;8.65;;
65737;SDS011;52478;51.844;6.582;2024-03-22T03:34:00;16.52;;;7.68;;
65737;SDS011;52478;51.844;6.582;2024-03-22T03:36:26;16.00;;;8.13;;
65737;SDS011;52478;51.844;6.582;2024-03-22T03:38:52;18.67;;;8.10;;
65737;SDS011;52478;51.844;6.582;2024-03-22T03:41:18;16.90;;;7.88;;
65737;SDS011;52478;51.844;6.582;2024-03-22T03:43:44;15.98;;;7.93;;
65737;SDS011;52478;51.844;6.582;2024-03-22T03:46:09;16.40;;;7.65;;
65737;SDS011;52478;51.844;6.582;2024-03-22T03:48:36;17.98;;;8.15;;
65737;SDS011;52478;51.844;6.582;2024-03-22T03:51:05;20.35;;;9.10;;
65737;SDS011;52478;51.844;6.582;2024-03-22T03:53:31;15.13;;;7.88;;
65737;SDS011;52478;51.844;6.582;2024-03-22T03:55:57;17.90;;;8.15;;
65737;SDS011;52478;51.844;6.582;2024-03-22T03:58:23;15.73;;;8.45;;
65737;SDS011;52478;51.844;6.582;2024-03-22T04:00:49;15.73;;;7.82;;
65737;SDS011;52478;51.844;6.582;2024-03-22T04:03:15;17.38;;;8.13;;
65737;SDS011;52478;51.844;6.582;2024-03-22T04:05:41;15.73;;;6.97;;
65737;SDS011;52478;51.844;6.582;2024-03-22T04:08:09;15.77;;;7.50;;
65737;SDS011;52478;51.844;6.582;2024-03-22T04:10:34;16.20;;;7.68;;
65737;SDS011;52478;51.844;6.582;2024-03-22T04:13:01;14.35;;;7.55;;
65737;SDS011;52478;51.844;6.582;2024-03-22T04:15:27;15.25;;;7.32;;
65737;SDS011;52478;51.844;6.582;2024-03-22T04:17:54;15.85;;;7.68;;
65737;SDS011;52478;51.844;6.582;2024-03-22T04:20:21;16.55;;;7.75;;
65737;SDS011;52478;51.844;6.582;2024-03-22T04:22:49;16.40;;;7.80;;
65737;SDS011;52478;51.844;6.582;2024-03-22T04:25:18;16.85;;;8.02;;
65737;SDS011;52478;51.844;6.582;2024-03-22T04:27:44;14.57;;;6.80;;
65737;SDS011;52478;51.844;6.582;2024-03-22T04:30:10;14.45;;;6.95;;
65737;SDS011;52478;51.844;6.582;2024-03-22T04:32:37;14.68;;;7.53;;
65737;SDS011;52478;51.844;6.582;2024-03-22T04:35:03;16.33;;;7.28;;
65737;SDS011;52478;51.844;6.582;2024-03-22T04:37:30;15.65;;;7.78;;
65737;SDS011;52478;51.844;6.582;2024-03-22T04:39:56;15.45;;;7.72;;
65737;SDS011;52478;51.844;6.582;2024-03-22T04:42:24;16.48;;;7.82;;
65737;SDS011;52478;51.844;6.582;2024-03-22T04:44:50;16.80;;;7.68;;
65737;SDS011;52478;51.844;6.582;2024-03-22T04:47:17;17.88;;;8.30;;
65737;SDS011;52478;51.844;6.582;2024-03-22T04:49:42;13.65;;;7.00;;
65737;SDS011;52478;51.844;6.582;2024-03-22T04:52:09;15.30;;;6.97;;
65737;SDS011;52478;51.844;6.582;2024-03-22T04:54:34;14.02;;;6.65;;
65737;SDS011;52478;51.844;6.582;2024-03-22T04:57:01;14.98;;;7.45;;
65737;SDS011;52478;51.844;6.582;2024-03-22T04:59:29;16.98;;;7.68;;
65737;SDS011;52478;51.844;6.582;2024-03-22T05:01:54;15.52;;;7.50;;
65737;SDS011;52478;51.844;6.582;2024-03-22T05:04:21;15.43;;;7.13;;
65737;SDS011;52478;51.844;6.582;2024-03-22T05:06:46;14.68;;;6.82;;
65737;SDS011;52478;51.844;6.582;2024-03-22T05:09:13;15.18;;;7.10;;
65737;SDS011;52478;51.844;6.582;2024-03-22T05:11:38;14.90;;;6.60;;
65737;SDS011;52478;51.844;6.582;2024-03-22T05:14:05;16.63;;;7.80;;
65737;SDS011;52478;51.844;6.582;2024-03-22T05:16:31;17.63;;;7.05;;
65737;SDS011;52478;51.844;6.582;2024-03-22T05:18:58;16.55;;;6.90;;
65737;SDS011;52478;51.844;6.582;2024-03-22T05:21:24;16.05;;;7.00;;
65737;SDS011;52478;51.844;6.582;2024-03-22T05:23:50;16.23;;;7.28;;
65737;SDS011;52478;51.844;6.582;2024-03-22T05:26:16;15.93;;;7.53;;
65737;SDS011;52478;51.844;6.582;2024-03-22T05:28:43;17.77;;;6.82;;
65737;SDS011;52478;51.844;6.582;2024-03-22T05:31:09;13.52;;;6.85;;
65737;SDS011;52478;51.844;6.582;2024-03-22T05:33:36;15.52;;;6.80;;
65737;SDS011;52478;51.844;6.582;2024-03-22T05:36:02;21.15;;;7.13;;
65737;SDS011;52478;51.844;6.582;2024-03-22T05:38:29;19.20;;;7.10;;
65737;SDS011;52478;51.844;6.582;2024-03-22T05:40:54;21.52;;;9.10;;
65737;SDS011;52478;51.844;6.582;2024-03-22T05:43:21;15.68;;;7.85;;
65737;SDS011;52478;51.844;6.582;2024-03-22T05:45:46;16.95;;;8.60;;
65737;SDS011;52478;51.844;6.582;2024-03-22T05:48:13;27.17;;;8.68;;
65737;SDS011;52478;51.844;6.582;2024-03-22T05:50:40;17.20;;;8.15;;
65737;SDS011;52478;51.844;6.582;2024-03-22T05:53:07;18.75;;;8.98;;
65737;SDS011;52478;51.844;6.582;2024-03-22T05:55:32;17.42;;;8.50;;
65737;SDS011;52478;51.844;6.582;2024-03-22T05:57:58;18.58;;;9.90;;
65737;SDS011;52478;51.844;6.582;2024-03-22T06:00:24;19.70;;;9.68;;
65737;SDS011;52478;51.844;6.582;2024-03-22T06:02:51;20.08;;;10.32;;
65737;SDS011;52478;51.844;6.582;2024-03-22T06:05:16;19.00;;;9.48;;
65737;SDS011;52478;51.844;6.582;2024-03-22T06:07:44;20.45;;;9.75;;
65737;SDS011;52478;51.844;6.582;2024-03-22T06:10:11;19.17;;;9.63;;
65737;SDS011;52478;51.844;6.582;2024-03-22T06:12:37;19.00;;;8.32;;
65737;SDS011;52478;51.844;6.582;2024-03-22T06:15:03;19.35;;;9.80;;
65737;SDS011;52478;51.844;6.582;2024-03-22T06:17:31;19.63;;;9.23;;
65737;SDS011;52478;51.844;6.582;2024-03-22T06:19:57;18.35;;;9.15;;
65737;SDS011;52478;51.844;6.582;2024-03-22T06:22:24;17.75;;;8.88;;
65737;SDS011;52478;51.844;6.582;2024-03-22T06:24:51;19.10;;;8.50;;
65737;SDS011;52478;51.844;6.582;2024-03-22T06:27:18;17.10;;;8.48;;
65737;SDS011;52478;51.844;6.582;2024-03-22T06:29:44;15.35;;;7.55;;
65737;SDS011;52478;51.844;6.582;2024-03-22T06:32:11;15.70;;;7.85;;
65737;SDS011;52478;51.844;6.582;2024-03-22T06:34:37;19.90;;;8.80;;
65737;SDS011;52478;51.844;6.582;2024-03-22T06:37:03;18.38;;;7.85;;
65737;SDS011;52478;51.844;6.582;2024-03-22T06:39:29;15.77;;;7.55;;
65737;SDS011;52478;51.844;6.582;2024-03-22T06:41:57;18.33;;;8.05;;
65737;SDS011;52478;51.844;6.582;2024-03-22T06:44:22;18.05;;;8.02;;
65737;SDS011;52478;51.844;6.582;2024-03-22T06:46:49;18.13;;;8.43;;
65737;SDS011;52478;51.844;6.582;2024-03-22T06:49:15;15.93;;;6.95;;
65737;SDS011;52478;51.844;6.582;2024-03-22T06:51:42;19.75;;;8.23;;
65737;SDS011;52478;51.844;6.582;2024-03-22T06:54:08;21.92;;;8.63;;
65737;SDS011;52478;51.844;6.582;2024-03-22T06:56:34;18.80;;;9.05;;
65737;SDS011;52478;51.844;6.582;2024-03-22T06:59:01;21.52;;;10.07;;
65737;SDS011;52478;51.844;6.582;2024-03-22T07:01:27;19.33;;;9.00;;
65737;SDS011;52478;51.844;6.582;2024-03-22T07:03:53;19.27;;;8.52;;
65737;SDS011;52478;51.844;6.582;2024-03-22T07:06:19;19.95;;;9.48;;
65737;SDS011;52478;51.844;6.582;2024-03-22T07:08:45;21.17;;;8.70;;
65737;SDS011;52478;51.844;6.582;2024-03-22T07:11:12;18.60;;;8.07;;
65737;SDS011;52478;51.844;6.582;2024-03-22T07:13:37;16.05;;;7.05;;
65737;SDS011;52478;51.844;6.582;2024-03-22T07:16:05;15.95;;;7.15;;
65737;SDS011;52478;51.844;6.582;2024-03-22T07:18:31;18.42;;;7.57;;
65737;SDS011;52478;51.844;6.582;2024-03-22T07:20:58;16.73;;;8.00;;
65737;SDS011;52478;51.844;6.582;2024-03-22T07:23:26;16.00;;;7.30;;
65737;SDS011;52478;51.844;6.582;2024-03-22T07:25:53;19.20;;;7.32;;
65737;SDS011;52478;51.844;6.582;2024-03-22T07:28:18;14.13;;;6.43;;
65737;SDS011;52478;51.844;6.582;2024-03-22T07:30:45;14.98;;;6.90;;
65737;SDS011;52478;51.844;6.582;2024-03-22T07:33:12;13.90;;;6.03;;
65737;SDS011;52478;51.844;6.582;2024-03-22T07:35:41;13.75;;;5.95;;
65737;SDS011;52478;51.844;6.582;2024-03-22T07:38:07;14.38;;;6.35;;
65737;SDS011;52478;51.844;6.582;2024-03-22T07:40:33;11.20;;;5.35;;
65737;SDS011;52478;51.844;6.582;2024-03-22T07:42:59;11.85;;;5.32;;
65737;SDS011;52478;51.844;6.582;2024-03-22T07:45:30;13.10;;;5.95;;
65737;SDS011;52478;51.844;6.582;2024-03-22T07:47:56;11.40;;;5.05;;
65737;SDS011;52478;51.844;6.582;2024-03-22T07:50:24;12.25;;;5.25;;
65737;SDS011;52478;51.844;6.582;2024-03-22T07:52:49;10.90;;;5.03;;
65737;SDS011;52478;51.844;6.582;2024-03-22T07:55:16;10.85;;;5.22;;
65737;SDS011;52478;51.844;6.582;2024-03-22T07:57:42;10.60;;;4.57;;
65737;SDS011;52478;51.844;6.582;2024-03-22T08:00:09;9.30;;;4.90;;
65737;SDS011;52478;51.844;6.582;2024-03-22T08:02:35;11.93;;;4.88;;
65737;SDS011;52478;51.844;6.582;2024-03-22T08:05:02;10.88;;;4.82;;
65737;SDS011;52478;51.844;6.582;2024-03-22T08:07:29;10.55;;;4.75;;
65737;SDS011;52478;51.844;6.582;2024-03-22T08:09:55;10.30;;;4.75;;
65737;SDS011;52478;51.844;6.582;2024-03-22T08:12:22;9.38;;;4.40;;
65737;SDS011;52478;51.844;6.582;2024-03-22T08:14:49;10.40;;;4.82;;
65737;SDS011;52478;51.844;6.582;2024-03-22T08:17:15;8.52;;;4.07;;
65737;SDS011;52478;51.844;6.582;2024-03-22T08:19:42;9.02;;;4.22;;
65737;SDS011;52478;51.844;6.582;2024-03-22T08:22:09;7.65;;;3.35;;
65737;SDS011;52478;51.844;6.582;2024-03-22T08:24:37;9.85;;;4.05;;
65737;SDS011;52478;51.844;6.582;2024-03-22T08:27:02;9.00;;;3.90;;
65737;SDS011;52478;51.844;6.582;2024-03-22T08:29:29;9.07;;;3.92;;
65737;SDS011;52478;51.844;6.582;2024-03-22T08:31:55;8.93;;;3.90;;
65737;SDS011;52478;51.844;6.582;2024-03-22T08:34:21;9.10;;;3.80;;
65737;SDS011;52478;51.844;6.582;2024-03-22T08:36:47;9.30;;;3.88;;
65737;SDS011;52478;51.844;6.582;2024-03-22T08:39:13;9.40;;;3.90;;
65737;SDS011;52478;51.844;6.582;2024-03-22T08:44:09;9.38;;;4.20;;
65737;SDS011;52478;51.844;6.582;2024-03-22T08:46:35;9.90;;;3.90;;
65737;SDS011;52478;51.844;6.582;2024-03-22T08:49:01;7.78;;;3.65;;
65737;SDS011;52478;51.844;6.582;2024-03-22T08:51:28;7.78;;;3.88;;
65737;SDS011;52478;51.844;6.582;2024-03-22T08:53:55;9.35;;;4.05;;
65737;SDS011;52478;51.844;6.582;2024-03-22T08:56:21;8.60;;;3.50;;
65737;SDS011;52478;51.844;6.582;2024-03-22T08:58:49;7.75;;;3.55;;
65737;SDS011;52478;51.844;6.582;2024-03-22T09:01:15;8.50;;;3.45;;
65737;SDS011;52478;51.844;6.582;2024-03-22T09:03:41;7.40;;;3.33;;
65737;SDS011;52478;51.844;6.582;2024-03-22T09:06:11;8.40;;;3.60;;
65737;SDS011;52478;51.844;6.582;2024-03-22T09:08:37;7.72;;;3.33;;
65737;SDS011;52478;51.844;6.582;2024-03-22T09:11:03;8.27;;;3.83;;
65737;SDS011;52478;51.844;6.582;2024-03-22T09:13:30;8.90;;;4.05;;
65737;SDS011;52478;51.844;6.582;2024-03-22T09:15:59;7.95;;;3.63;;
65737;SDS011;52478;51.844;6.582;2024-03-22T09:18:26;8.35;;;4.03;;
65737;SDS011;52478;51.844;6.582;2024-03-22T09:20:52;6.65;;;2.95;;
65737;SDS011;52478;51.844;6.582;2024-03-22T09:23:18;8.73;;;3.65;;
65737;SDS011;52478;51.844;6.582;2024-03-22T09:25:44;8.75;;;3.92;;
65737;SDS011;52478;51.844;6.582;2024-03-22T09:28:11;8.15;;;3.50;;
65737;SDS011;52478;51.844;6.582;2024-03-22T09:30:37;8.93;;;3.55;;
65737;SDS011;52478;51.844;6.582;2024-03-22T09:33:05;7.28;;;3.28;;
65737;SDS011;52478;51.844;6.582;2024-03-22T09:35:32;8.15;;;3.88;;
65737;SDS011;52478;51.844;6.582;2024-03-22T09:37:59;7.20;;;3.33;;
65737;SDS011;52478;51.844;6.582;2024-03-22T09:40:25;7.18;;;3.63;;
65737;SDS011;52478;51.844;6.582;2024-03-22T09:42:52;7.75;;;3.40;;
65737;SDS011;52478;51.844;6.582;2024-03-22T09:45:18;7.47;;;3.55;;
65737;SDS011;52478;51.844;6.582;2024-03-22T09:47:45;8.65;;;3.90;;
65737;SDS011;52478;51.844;6.582;2024-03-22T09:52:41;8.57;;;3.50;;
65737;SDS011;52478;51.844;6.582;2024-03-22T09:55:07;8.02;;;3.90;;
65737;SDS011;52478;51.844;6.582;2024-03-22T09:57:35;7.63;;;3.53;;
65737;SDS011;52478;51.844;6.582;2024-03-22T10:00:04;8.00;;;3.85;;
65737;SDS011;52478;51.844;6.582;2024-03-22T10:02:33;7.65;;;3.75;;
65737;SDS011;52478;51.844;6.582;2024-03-22T10:04:59;8.02;;;3.75;;
65737;SDS011;52478;51.844;6.582;2024-03-22T10:07:28;7.80;;;3.67;;
65737;SDS011;52478;51.844;6.582;2024-03-22T10:09:57;8.48;;;3.67;;
65737;SDS011;52478;51.844;6.582;2024-03-22T10:12:24;7.88;;;3.85;;
65737;SDS011;52478;51.844;6.582;2024-03-22T10:14:50;8.75;;;4.43;;
65737;SDS011;52478;51.844;6.582;2024-03-22T10:17:18;7.95;;;3.83;;
65737;SDS011;52478;51.844;6.582;2024-03-22T10:19:44;9.10;;;4.40;;
65737;SDS011;52478;51.844;6.582;2024-03-22T10:22:10;8.85;;;4.32;;
65737;SDS011;52478;51.844;6.582;2024-03-22T10:24:37;9.48;;;5.10;;
65737;SDS011;52478;51.844;6.582;2024-03-22T10:27:04;9.88;;;4.70;;
65737;SDS011;52478;51.844;6.582;2024-03-22T10:29:29;8.93;;;4.35;;
65737;SDS011;52478;51.844;6.582;2024-03-22T10:31:56;11.15;;;4.93;;
65737;SDS011;52478;51.844;6.582;2024-03-22T10:34:21;9.38;;;4.90;;
65737;SDS011;52478;51.844;6.582;2024-03-22T10:36:48;9.93;;;4.70;;
65737;SDS011;52478;51.844;6.582;2024-03-22T10:39:16;9.38;;;5.20;;
65737;SDS011;52478;51.844;6.582;2024-03-22T10:41:45;9.65;;;4.70;;
65737;SDS011;52478;51.844;6.582;2024-03-22T10:44:10;9.75;;;4.88;;
65737;SDS011;52478;51.844;6.582;2024-03-22T10:46:38;8.70;;;4.90;;
65737;SDS011;52478;51.844;6.582;2024-03-22T10:49:09;10.07;;;5.40;;
65737;SDS011;52478;51.844;6.582;2024-03-22T10:51:40;10.10;;;5.57;;
65737;SDS011;52478;51.844;6.582;2024-03-22T10:54:08;11.45;;;5.60;;
65737;SDS011;52478;51.844;6.582;2024-03-22T10:56:34;11.02;;;6.18;;
65737;SDS011;52478;51.844;6.582;2024-03-22T10:59:04;9.48;;;5.45;;
65737;SDS011;52478;51.844;6.582;2024-03-22T11:01:29;10.90;;;6.05;;
65737;SDS011;52478;51.844;6.582;2024-03-22T11:04:05;9.88;;;5.35;;
65737;SDS011;52478;51.844;6.582;2024-03-22T11:06:31;11.18;;;6.30;;
65737;SDS011;52478;51.844;6.582;2024-03-22T11:08:59;11.38;;;6.05;;
65737;SDS011;52478;51.844;6.582;2024-03-22T11:11:25;10.65;;;6.07;;
65737;SDS011;52478;51.844;6.582;2024-03-22T11:13:54;12.20;;;6.90;;
65737;SDS011;52478;51.844;6.582;2024-03-22T11:16:22;11.25;;;6.20;;
65737;SDS011;52478;51.844;6.582;2024-03-22T11:18:49;12.93;;;7.38;;
65737;SDS011;52478;51.844;6.582;2024-03-22T11:21:14;13.57;;;7.65;;
65737;SDS011;52478;51.844;6.582;2024-03-22T11:23:41;12.45;;;6.60;;
65737;SDS011;52478;51.844;6.582;2024-03-22T11:26:10;13.63;;;7.85;;
65737;SDS011;52478;51.844;6.582;2024-03-22T11:28:37;14.13;;;8.60;;
65737;SDS011;52478;51.844;6.582;2024-03-22T11:31:03;16.52;;;8.73;;
65737;SDS011;52478;51.844;6.582;2024-03-22T11:33:31;16.42;;;9.32;;
65737;SDS011;52478;51.844;6.582;2024-03-22T11:38:24;17.40;;;9.23;;
65737;SDS011;52478;51.844;6.582;2024-03-22T11:40:52;19.48;;;10.60;;
65737;SDS011;52478;51.844;6.582;2024-03-22T11:43:19;16.98;;;10.00;;
65737;SDS011;52478;51.844;6.582;2024-03-22T11:45:45;18.13;;;10.57;;
65737;SDS011;52478;51.844;6.582;2024-03-22T11:48:11;18.83;;;10.48;;
65737;SDS011;52478;51.844;6.582;2024-03-22T11:50:38;20.70;;;11.60;;
65737;SDS011;52478;51.844;6.582;2024-03-22T11:53:05;23.92;;;12.85;;
65737;SDS011;52478;51.844;6.582;2024-03-22T11:55:31;24.40;;;11.25;;
65737;SDS011;52478;51.844;6.582;2024-03-22T11:57:57;32.17;;;12.45;;
65737;SDS011;52478;51.844;6.582;2024-03-22T12:00:23;23.85;;;12.32;;
65737;SDS011;52478;51.844;6.582;2024-03-22T12:02:50;23.52;;;12.40;;
65737;SDS011;52478;51.844;6.582;2024-03-22T12:05:16;24.73;;;12.48;;
65737;SDS011;52478;51.844;6.582;2024-03-22T12:07:45;23.10;;;12.18;;
65737;SDS011;52478;51.844;6.582;2024-03-22T12:12:37;25.63;;;12.43;;
65737;SDS011;52478;51.844;6.582;2024-03-22T12:15:03;25.05;;;12.63;;
65737;SDS011;52478;51.844;6.582;2024-03-22T12:17:30;25.67;;;12.68;;
65737;SDS011;52478;51.844;6.582;2024-03-22T12:19:56;24.90;;;12.50;;
65737;SDS011;52478;51.844;6.582;2024-03-22T12:22:23;26.45;;;13.63;;
65737;SDS011;52478;51.844;6.582;2024-03-22T12:24:52;28.63;;;13.10;;
65737;SDS011;52478;51.844;6.582;2024-03-22T12:27:18;24.00;;;13.20;;
65737;SDS011;52478;51.844;6.582;2024-03-22T12:29:44;23.48;;;12.68;;
65737;SDS011;52478;51.844;6.582;2024-03-22T12:32:10;25.75;;;13.57;;
65737;SDS011;52478;51.844;6.582;2024-03-22T12:34:36;23.83;;;12.80;;
65737;SDS011;52478;51.844;6.582;2024-03-22T12:37:02;28.90;;;13.55;;
65737;SDS011;52478;51.844;6.582;2024-03-22T12:39:28;24.95;;;13.27;;
65737;SDS011;52478;51.844;6.582;2024-03-22T12:41:56;24.08;;;12.95;;
65737;SDS011;52478;51.844;6.582;2024-03-22T12:44:21;23.20;;;11.73;;
65737;SDS011;52478;51.844;6.582;2024-03-22T12:46:48;21.65;;;10.70;;
65737;SDS011;52478;51.844;6.582;2024-03-22T12:49:14;24.33;;;11.45;;
65737;SDS011;52478;51.844;6.582;2024-03-22T12:51:40;20.08;;;10.55;;
65737;SDS011;52478;51.844;6.582;2024-03-22T12:54:07;23.42;;;11.93;;
65737;SDS011;52478;51.844;6.582;2024-03-22T12:56:34;22.45;;;11.52;;
65737;SDS011;52478;51.844;6.582;2024-03-22T13:01:29;20.10;;;10.55;;
65737;SDS011;52478;51.844;6.582;2024-03-22T13:03:55;20.20;;;10.77;;
65737;SDS011;52478;51.844;6.582;2024-03-22T13:06:23;23.77;;;11.77;;
65737;SDS011;52478;51.844;6.582;2024-03-22T13:08:49;21.45;;;10.85;;
65737;SDS011;52478;51.844;6.582;2024-03-22T13:11:16;20.70;;;9.80;;
65737;SDS011;52478;51.844;6.582;2024-03-22T13:13:42;19.77;;;10.38;;
65737;SDS011;52478;51.844;6.582;2024-03-22T13:16:10;19.35;;;10.45;;
65737;SDS011;52478;51.844;6.582;2024-03-22T13:18:39;20.45;;;10.52;;
65737;SDS011;52478;51.844;6.582;2024-03-22T13:21:06;18.02;;;10.00;;
65737;SDS011;52478;51.844;6.582;2024-03-22T13:23:31;18.52;;;10.00;;
65737;SDS011;52478;51.844;6.582;2024-03-22T13:26:02;21.17;;;10.52;;
65737;SDS011;52478;51.844;6.582;2024-03-22T13:28:28;19.25;;;10.57;;
65737;SDS011;52478;51.844;6.582;2024-03-22T13:30:58;18.95;;;10.45;;
65737;SDS011;52478;51.844;6.582;2024-03-22T13:33:26;18.48;;;10.13;;
65737;SDS011;52478;51.844;6.582;2024-03-22T13:35:52;18.25;;;10.38;;
65737;SDS011;52478;51.844;6.582;2024-03-22T13:38:18;18.70;;;10.13;;
65737;SDS011;52478;51.844;6.582;2024-03-22T13:40:52;20.17;;;10.45;;
65737;SDS011;52478;51.844;6.582;2024-03-22T13:43:18;18.48;;;10.00;;
65737;SDS011;52478;51.844;6.582;2024-03-22T13:45:44;16.58;;;9.40;;
65737;SDS011;52478;51.844;6.582;2024-03-22T13:48:11;16.80;;;9.32;;
65737;SDS011;52478;51.844;6.582;2024-03-22T13:50:39;17.38;;;9.85;;
65737;SDS011;52478;51.844;6.582;2024-03-22T13:53:05;17.65;;;8.98;;
65737;SDS011;52478;51.844;6.582;2024-03-22T13:57:57;15.40;;;8.02;;
65737;SDS011;52478;51.844;6.582;2024-03-22T14:00:24;17.38;;;9.00;;
65737;SDS011;52478;51.844;6.582;2024-03-22T14:02:50;14.88;;;8.32;;
65737;SDS011;52478;51.844;6.582;2024-03-22T14:05:19;16.50;;;9.02;;
65737;SDS011;52478;51.844;6.582;2024-03-22T14:07:46;15.75;;;8.68;;
65737;SDS011;52478;51.844;6.582;2024-03-22T14:10:12;15.48;;;8.02;;
65737;SDS011;52478;51.844;6.582;2024-03-22T14:12:41;13.98;;;7.95;;
65737;SDS011;52478;51.844;6.582;2024-03-22T14:15:07;14.65;;;8.32;;
65737;SDS011;52478;51.844;6.582;2024-03-22T14:17:33;15.35;;;7.95;;
65737;SDS011;52478;51.844;6.582;2024-03-22T14:20:00;14.35;;;7.43;;
65737;SDS011;52478;51.844;6.582;2024-03-22T14:22:25;15.07;;;7.35;;
65737;SDS011;52478;51.844;6.582;2024-03-22T14:24:53;14.98;;;8.15;;
65737;SDS011;52478;51.844;6.582;2024-03-22T14:27:19;15.07;;;7.40;;
65737;SDS011;52478;51.844;6.582;2024-03-22T14:29:45;15.88;;;7.40;;
65737;SDS011;52478;51.844;6.582;2024-03-22T14:32:11;12.70;;;6.53;;
65737;SDS011;52478;51.844;6.582;2024-03-22T14:34:37;12.50;;;6.57;;
65737;SDS011;52478;51.844;6.582;2024-03-22T14:37:03;14.65;;;6.78;;
65737;SDS011;52478;51.844;6.582;2024-03-22T14:39:30;14.18;;;7.05;;
65737;SDS011;52478;51.844;6.582;2024-03-22T14:41:57;12.75;;;6.55;;
65737;SDS011;52478;51.844;6.582;2024-03-22T14:44:23;13.45;;;6.47;;
65737;SDS011;52478;51.844;6.582;2024-03-22T14:46:48;12.30;;;6.75;;
65737;SDS011;52478;51.844;6.582;2024-03-22T14:49:15;10.25;;;5.45;;
65737;SDS011;52478;51.844;6.582;2024-03-22T14:51:40;10.80;;;5.28;;